Time;durP1;ratioP1;P1;durP2;ratioP2;P2;SDS_P1;SDS_P2;PMS_P1;PMS_P2;Temp;Humidity;BMP_temperature;BMP_pressure;BME280_temperature;BME280_humidity;BME280_pressure;Samples;Min_cycle;Max_cycle;Signal;HPM_P1;HPM_P2
2022/05/03 00:01:24;;;;;;;10.45;5.90;;;;;;;13.49;100.00;101091.63;4920308;29;20036;-79
2022/05/03 00:04:20;;;;;;;8.45;6.30;;;;;;;13.87;100.00;101083.66;4933377;29;20043;-78
2022/05/03 00:07:27;;;;;;;15.15;9.27;;;;;;;13.95;100.00;101080.84;4919667;29;20050;-78
2022/05/03 00:10:18;;;;;;;10.60;7.80;;;;;;;13.41;100.00;101080.41;4933246;29;20032;-78
2022/05/03 00:13:08;;;;;;;13.65;7.90;;;;;;;13.95;100.00;101079.06;4919238;29;20039;-77
2022/05/03 00:15:55;;;;;;;13.85;6.80;;;;;;;13.88;100.00;101079.25;4920585;29;20035;-78
2022/05/03 00:18:42;;;;;;;8.75;6.03;;;;;;;13.40;100.00;101077.81;4920679;29;20033;-77
2022/05/03 00:21:28;;;;;;;8.77;6.07;;;;;;;13.29;100.00;101075.44;4919392;29;20075;-77
2022/05/03 00:24:15;;;;;;;11.75;6.93;;;;;;;13.52;100.00;101075.78;4918979;29;20036;-78
2022/05/03 00:27:01;;;;;;;10.95;6.35;;;;;;;13.44;100.00;101076.84;4932038;29;20452;-77
2022/05/03 00:29:47;;;;;;;8.82;6.55;;;;;;;13.66;100.00;101070.16;4919167;29;20035;-78
2022/05/03 00:32:34;;;;;;;11.55;6.40;;;;;;;13.67;100.00;101074.53;4920814;29;20043;-77
2022/05/03 00:35:21;;;;;;;14.35;6.55;;;;;;;13.35;100.00;101074.44;4932763;29;20059;-77
2022/05/03 00:38:07;;;;;;;8.35;6.38;;;;;;;13.28;100.00;101084.22;4920905;29;20107;-78
2022/05/03 00:40:58;;;;;;;8.73;6.10;;;;;;;13.52;100.00;101085.44;4919274;29;20036;-78
2022/05/03 00:43:50;;;;;;;8.05;5.85;;;;;;;13.45;100.00;101083.81;4919858;29;20063;-78
2022/05/03 00:46:39;;;;;;;8.63;6.38;;;;;;;13.48;100.00;101089.91;4918891;29;20347;-78
2022/05/03 00:49:42;;;;;;;12.88;7.10;;;;;;;13.40;100.00;101089.22;4918007;29;20024;-79
2022/05/03 00:52:41;;;;;;;9.43;6.30;;;;;;;13.49;100.00;101081.09;4920144;29;20087;-78
2022/05/03 00:56:15;;;;;;;9.15;6.85;;;;;;;13.28;100.00;101084.22;4917319;29;20468;-78
2022/05/03 00:59:22;;;;;;;9.40;6.28;;;;;;;13.58;100.00;101075.59;4917325;29;20052;-78
2022/05/03 01:02:08;;;;;;;10.77;6.72;;;;;;;13.59;100.00;101074.69;4932523;29;20369;-78
2022/05/03 01:05:07;;;;;;;9.48;6.60;;;;;;;13.40;100.00;101069.91;4918609;29;20055;-77
2022/05/03 01:08:02;;;;;;;9.57;6.88;;;;;;;13.57;100.00;101065.09;4919642;29;20099;-78
2022/05/03 01:11:15;;;;;;;9.85;6.35;;;;;;;13.78;100.00;101065.47;4917532;29;20107;-77
2022/05/03 01:14:21;;;;;;;8.80;6.55;;;;;;;13.57;100.00;101065.09;4917565;29;20087;-77
2022/05/03 01:17:16;;;;;;;11.77;6.53;;;;;;;13.43;100.00;101075.97;4931758;29;20036;-78
2022/05/03 01:20:06;;;;;;;10.23;6.40;;;;;;;13.96;100.00;101072.03;4930990;29;20068;-77
2022/05/03 01:23:20;;;;;;;8.15;6.18;;;;;;;13.64;100.00;101069.34;4919691;29;20043;-78
2022/05/03 01:26:21;;;;;;;10.68;6.45;;;;;;;13.22;100.00;101065.94;4918084;29;20118;-78
2022/05/03 01:29:32;;;;;;;7.80;6.30;;;;;;;13.43;100.00;101070.69;4931826;29;20063;-77
2022/05/03 01:32:19;;;;;;;10.25;6.40;;;;;;;13.51;100.00;101063.47;4918024;29;20039;-77
2022/05/03 01:35:06;;;;;;;13.93;7.60;;;;;;;13.42;100.00;101065.50;4917496;29;20389;-77
2022/05/03 01:38:05;;;;;;;13.88;7.05;;;;;;;13.23;100.00;101072.91;4918943;29;20031;-78
2022/05/03 01:41:23;;;;;;;9.73;6.75;;;;;;;13.24;100.00;101069.41;4919679;29;20457;-78
2022/05/03 01:44:36;;;;;;;11.10;7.35;;;;;;;13.33;100.00;101079.72;4911028;29;20044;-78
2022/05/03 01:47:33;;;;;;;13.23;7.43;;;;;;;13.06;100.00;101064.53;4918038;29;20028;-78
2022/05/03 01:50:30;;;;;;;13.50;6.95;;;;;;;13.44;100.00;101072.47;4917929;29;20051;-78
2022/05/03 01:53:24;;;;;;;12.77;7.32;;;;;;;13.25;100.00;101065.00;4917412;29;20489;-78
2022/05/03 01:56:18;;;;;;;12.50;7.47;;;;;;;13.51;100.00;101063.47;4930588;29;20059;-77
2022/05/03 01:59:30;;;;;;;12.95;7.22;;;;;;;13.23;100.00;101066.81;4931515;29;20473;-77
2022/05/03 02:02:43;;;;;;;13.70;7.85;;;;;;;13.29;100.00;101059.66;4918294;29;20043;-79
2022/05/03 02:05:38;;;;;;;13.93;7.68;;;;;;;13.16;100.00;101063.47;4931361;29;20377;-77
2022/05/03 02:08:30;;;;;;;16.38;7.60;;;;;;;13.14;100.00;101059.97;4918108;29;20047;-77
2022/05/03 02:11:31;;;;;;;13.55;7.65;;;;;;;13.31;100.00;101052.56;4917956;29;20118;-78
2022/05/03 02:14:44;;;;;;;15.98;7.75;;;;;;;13.30;100.00;101050.84;4917402;29;20020;-78
2022/05/03 02:18:03;;;;;;;10.30;6.93;;;;;;;13.38;100.00;101055.94;4917669;29;20036;-76
2022/05/03 02:21:18;;;;;;;10.65;7.10;;;;;;;13.25;100.00;101052.72;4917713;29;20044;-78
2022/05/03 02:24:16;;;;;;;16.65;6.78;;;;;;;13.28;100.00;101055.28;4918430;29;20032;-77
2022/05/03 02:27:09;;;;;;;13.73;6.93;;;;;;;13.36;100.00;101041.94;4930700;29;20349;-78
2022/05/03 02:29:58;;;;;;;12.85;6.80;;;;;;;13.42;100.00;101047.06;4917370;29;20470;-78
2022/05/03 02:32:54;;;;;;;12.60;6.57;;;;;;;13.55;100.00;101048.50;4917918;29;20035;-78
2022/05/03 02:35:48;;;;;;;11.57;6.75;;;;;;;13.36;100.00;101047.19;4915956;29;20038;-77
2022/05/03 02:38:48;;;;;;;25.70;7.38;;;;;;;13.45;100.00;101042.59;4917908;29;20032;-78
2022/05/03 02:41:38;;;;;;;10.77;6.65;;;;;;;13.33;100.00;101044.63;4916587;29;20047;-77
2022/05/03 02:44:28;;;;;;;10.30;6.50;;;;;;;13.07;100.00;101050.47;4916740;29;20024;-78
2022/05/03 02:47:41;;;;;;;13.43;7.07;;;;;;;13.02;100.00;101044.47;4917161;29;20461;-78
2022/05/03 02:50:35;;;;;;;19.70;7.20;;;;;;;13.10;100.00;101045.16;4917293;29;20525;-79
2022/05/03 02:53:52;;;;;;;15.52;6.80;;;;;;;13.22;100.00;101044.03;4926490;29;20052;-77
2022/05/03 02:57:15;;;;;;;13.07;7.03;;;;;;;13.05;100.00;101048.78;4927973;29;20131;-78
2022/05/03 03:03:25;;;;;;;16.92;7.18;;;;;;;12.82;100.00;101051.03;4917963;29;20032;-78
2022/05/03 03:06:23;;;;;;;11.98;7.03;;;;;;;12.48;100.00;101057.88;4929633;29;20516;-78
2022/05/03 03:09:15;;;;;;;10.45;6.93;;;;;;;12.84;100.00;101050.13;4917138;29;20036;-79
2022/05/03 03:12:14;;;;;;;12.00;7.00;;;;;;;13.18;100.00;101050.28;4917722;29;20024;-78
2022/05/03 03:15:06;;;;;;;11.98;6.60;;;;;;;13.03;100.00;101054.09;4919871;29;20115;-77
2022/05/03 03:17:54;;;;;;;13.32;6.63;;;;;;;13.26;100.00;101046.53;4920819;29;20028;-78
2022/05/03 03:20:53;;;;;;;11.82;6.57;;;;;;;13.41;100.00;101040.06;4920675;29;20115;-78
2022/05/03 03:23:40;;;;;;;10.82;6.28;;;;;;;13.11;100.00;101046.88;4921532;29;20036;-78
2022/05/03 03:26:29;;;;;;;10.48;6.32;;;;;;;12.98;100.00;101061.22;4920916;29;20339;-78
2022/05/03 03:29:19;;;;;;;11.07;6.80;;;;;;;13.10;100.00;101063.56;4920479;29;20158;-78
2022/05/03 03:32:09;;;;;;;13.20;7.18;;;;;;;12.78;100.00;101063.38;4933136;29;20039;-78
2022/05/03 03:34:59;;;;;;;10.55;7.20;;;;;;;12.75;100.00;101065.22;4921787;29;20024;-78
2022/05/03 03:37:49;;;;;;;15.88;7.65;;;;;;;13.25;100.00;101062.38;4920352;29;20032;-78
2022/05/03 03:40:35;;;;;;;10.02;7.50;;;;;;;13.09;100.00;101067.13;4920821;29;20039;-77
2022/05/03 03:43:21;;;;;;;11.70;8.02;;;;;;;12.68;100.00;101064.47;4919220;29;20024;-78
2022/05/03 03:46:07;;;;;;;14.57;8.20;;;;;;;13.11;100.00;101067.09;4919754;29;20459;-78
2022/05/03 03:48:54;;;;;;;11.15;7.75;;;;;;;13.11;100.00;101073.19;4920858;29;20469;-77
2022/05/03 03:51:40;;;;;;;11.07;7.22;;;;;;;12.96;100.00;101073.53;4920479;29;20028;-78
2022/05/03 03:54:27;;;;;;;13.38;6.68;;;;;;;12.13;100.00;101076.94;4933458;29;20110;-77
2022/05/03 03:57:13;;;;;;;11.65;7.03;;;;;;;12.26;100.00;101077.59;4919186;29;20537;-77
2022/05/03 04:00:02;;;;;;;10.57;6.95;;;;;;;12.50;100.00;101083.22;4921334;29;20080;-77
2022/05/03 04:02:48;;;;;;;8.55;6.47;;;;;;;12.66;100.00;101087.28;4920032;29;20035;-77
2022/05/03 04:05:35;;;;;;;12.27;6.40;;;;;;;12.17;100.00;101083.88;4919067;29;20373;-77
2022/05/03 04:08:21;;;;;;;11.02;6.78;;;;;;;12.13;100.00;101082.19;4919773;29;20446;-77
2022/05/03 04:11:16;;;;;;;11.43;7.53;;;;;;;11.87;100.00;101084.41;4920453;29;20024;-77
2022/05/03 04:14:06;;;;;;;12.15;7.50;;;;;;;11.88;100.00;101094.00;4919439;29;20032;-78
2022/05/03 04:16:52;;;;;;;12.23;7.07;;;;;;;12.47;100.00;101087.69;4919896;29;20028;-78
2022/05/03 04:19:38;;;;;;;14.18;7.30;;;;;;;12.33;100.00;101093.19;4919569;29;20070;-77
2022/05/03 04:22:32;;;;;;;10.88;7.00;;;;;;;12.33;100.00;101093.19;4933350;29;20032;-77
2022/05/03 04:25:18;;;;;;;15.70;7.85;;;;;;;12.77;100.00;101095.81;4920615;29;20034;-76
2022/05/03 04:28:03;;;;;;;12.82;7.50;;;;;;;12.80;100.00;101101.03;4918433;29;20031;-78
2022/05/03 04:30:49;;;;;;;11.85;8.13;;;;;;;12.38;100.00;101103.63;4919328;29;20399;-77
2022/05/03 04:33:35;;;;;;;13.07;8.27;;;;;;;13.07;100.00;101097.00;4918577;29;20024;-77
2022/05/03 04:36:21;;;;;;;16.63;8.32;;;;;;;12.36;100.00;101093.16;4920042;29;20047;-77
2022/05/03 04:39:07;;;;;;;15.30;8.15;;;;;;;12.73;100.00;101096.78;4919982;29;20032;-77
2022/05/03 04:41:53;;;;;;;12.45;8.05;;;;;;;12.81;100.00;101100.13;4918663;29;20064;-78
2022/05/03 04:44:38;;;;;;;15.32;8.65;;;;;;;12.97;100.00;101096.31;4918968;29;20036;-77
2022/05/03 04:47:24;;;;;;;15.77;8.60;;;;;;;12.96;100.00;101102.44;4917380;29;20028;-78
2022/05/03 04:50:11;;;;;;;11.95;8.55;;;;;;;12.77;100.00;101098.47;4919461;29;20111;-76
2022/05/03 04:52:57;;;;;;;13.75;8.38;;;;;;;12.94;100.00;101095.50;4918847;29;20118;-76
2022/05/03 04:55:43;;;;;;;13.45;8.65;;;;;;;12.88;100.00;101101.75;4918888;29;20043;-80
2022/05/03 04:58:29;;;;;;;15.85;9.32;;;;;;;13.13;100.00;101099.47;4920354;29;20095;-76
2022/05/03 05:01:16;;;;;;;19.77;8.50;;;;;;;13.05;100.00;101112.81;4919139;29;20420;-78
2022/05/03 05:04:02;;;;;;;15.57;9.13;;;;;;;13.28;100.00;101107.03;4918971;29;20144;-78
2022/05/03 05:06:47;;;;;;;14.80;9.57;;;;;;;13.26;100.00;101108.84;4918210;29;20060;-78
2022/05/03 05:09:33;;;;;;;15.40;9.20;;;;;;;13.43;100.00;101101.44;4931275;29;20047;-77
2022/05/03 05:12:19;;;;;;;19.27;9.85;;;;;;;13.02;100.00;101109.38;4919162;29;20107;-77
2022/05/03 05:15:05;;;;;;;19.75;10.35;;;;;;;12.83;100.00;101106.22;4919750;29;20476;-77
2022/05/03 05:17:55;;;;;;;17.83;10.18;;;;;;;12.67;100.00;101106.56;4919154;29;20046;-78
2022/05/03 05:20:41;;;;;;;19.13;10.15;;;;;;;12.92;100.00;101116.56;4919518;29;20028;-78
2022/05/03 05:23:27;;;;;;;20.05;10.20;;;;;;;13.03;100.00;101109.31;4919382;29;20063;-78
2022/05/03 05:26:14;;;;;;;16.88;10.43;;;;;;;12.88;100.00;101117.53;4919263;29;20056;-76
2022/05/03 05:29:00;;;;;;;19.23;10.20;;;;;;;13.28;100.00;101114.94;4918945;29;20463;-77
2022/05/03 05:31:46;;;;;;;22.17;11.05;;;;;;;13.11;100.00;101114.44;4918119;29;20122;-78
2022/05/03 05:34:31;;;;;;;19.38;11.52;;;;;;;13.07;100.00;101113.63;4917196;29;20033;-78
2022/05/03 05:37:17;;;;;;;23.15;11.50;;;;;;;13.14;100.00;101111.75;4919432;29;20020;-77
2022/05/03 05:40:04;;;;;;;19.70;10.50;;;;;;;13.11;100.00;101117.91;4917486;29;20028;-77
2022/05/03 05:42:49;;;;;;;17.83;11.27;;;;;;;12.79;100.00;101115.09;4918218;29;20095;-77
2022/05/03 05:45:35;;;;;;;17.02;12.35;;;;;;;12.66;100.00;101124.09;4917896;29;20051;-77
2022/05/03 05:48:22;;;;;;;17.58;10.90;;;;;;;12.72;100.00;101131.00;4930693;29;20036;-77
2022/05/03 05:51:08;;;;;;;17.92;10.68;;;;;;;12.66;100.00;101124.09;4918712;29;20487;-77
2022/05/03 05:53:54;;;;;;;16.55;11.13;;;;;;;12.88;100.00;101121.91;4916644;29;20036;-78
2022/05/03 05:56:41;;;;;;;23.08;11.90;;;;;;;13.44;100.00;101133.00;4919249;29;20119;-77
2022/05/03 05:59:26;;;;;;;20.48;11.23;;;;;;;13.24;100.00;101140.47;4929853;29;20047;-79
2022/05/03 06:02:15;;;;;;;14.88;11.27;;;;;;;13.60;100.00;101137.00;4932690;29;20039;-81
2022/05/03 06:05:01;;;;;;;17.60;11.07;;;;;;;13.78;100.00;101136.56;4920000;29;20099;-81
2022/05/03 06:07:47;;;;;;;19.98;10.77;;;;;;;13.67;100.00;101137.72;4919431;29;20099;-82
2022/05/03 06:10:33;;;;;;;17.30;11.60;;;;;;;13.75;100.00;101141.06;4918044;29;20024;-81
2022/05/03 06:13:19;;;;;;;19.15;10.60;;;;;;;13.26;100.00;101146.53;4925636;29;20114;-81
2022/05/03 06:16:09;;;;;;;18.40;11.57;;;;;;;13.37;100.00;101147.19;4908053;29;20047;-82
2022/05/03 06:18:55;;;;;;;17.27;12.15;;;;;;;13.49;100.00;101139.00;4903655;29;20024;-82
2022/05/03 06:21:41;;;;;;;18.65;11.77;;;;;;;13.49;100.00;101146.03;4899404;29;20036;-81
2022/05/03 06:24:27;;;;;;;19.17;11.52;;;;;;;13.17;100.00;101143.22;4902135;29;20149;-82
2022/05/03 06:27:13;;;;;;;19.92;12.52;;;;;;;12.90;100.00;101147.25;4896250;29;20117;-82
2022/05/03 06:29:59;;;;;;;20.85;12.32;;;;;;;12.80;100.00;101148.38;4900880;29;20037;-81
2022/05/03 06:32:45;;;;;;;19.05;12.00;;;;;;;12.81;100.00;101143.94;4906338;29;20036;-78
2022/05/03 06:35:31;;;;;;;20.50;13.85;;;;;;;12.66;100.00;101150.38;4901775;29;20040;-80
2022/05/03 06:38:17;;;;;;;22.02;12.65;;;;;;;13.03;100.00;101150.56;4900801;29;20024;-80
2022/05/03 06:41:03;;;;;;;21.42;12.65;;;;;;;13.44;100.00;101150.53;4904034;29;20033;-80
2022/05/03 06:43:49;;;;;;;22.33;13.07;;;;;;;13.29;100.00;101159.63;4907931;29;20068;-80
2022/05/03 06:46:34;;;;;;;16.83;11.60;;;;;;;13.10;100.00;101155.66;4901822;29;20110;-81
2022/05/03 06:49:20;;;;;;;18.27;12.20;;;;;;;13.27;100.00;101155.31;4909862;29;20033;-81
2022/05/03 06:52:06;;;;;;;19.27;11.30;;;;;;;13.26;100.00;101150.97;4900073;29;20510;-81
2022/05/03 06:54:52;;;;;;;17.27;10.77;;;;;;;13.67;100.00;101161.44;4904442;29;20103;-81
2022/05/03 06:57:39;;;;;;;20.15;11.60;;;;;;;13.87;100.00;101161.81;4905960;29;20075;-81
2022/05/03 07:00:25;;;;;;;21.42;11.23;;;;;;;14.47;100.00;101153.28;4905764;29;20033;-81
2022/05/03 07:03:13;;;;;;;18.10;11.73;;;;;;;14.18;100.00;101157.53;4904801;29;20071;-81
2022/05/03 07:05:59;;;;;;;15.80;10.57;;;;;;;14.07;100.00;101151.69;4902863;29;20028;-78
2022/05/03 07:08:51;;;;;;;16.70;10.10;;;;;;;14.19;100.00;101159.28;4904386;29;20036;-81
2022/05/03 07:11:40;;;;;;;17.60;10.93;;;;;;;14.28;100.00;101153.78;4905845;29;20051;-81
2022/05/03 07:14:26;;;;;;;19.90;11.77;;;;;;;14.02;100.00;101153.53;4905312;29;20043;-80
2022/05/03 07:22:45;;;;;;;20.85;14.73;;;;;;;13.92;100.00;101155.56;4901844;29;20482;-81
2022/05/03 07:24:15;;;;;;;41.35;29.23;;;;;;;14.03;100.00;101148.22;4906549;29;20029;-83
2022/05/03 07:27:25;;;;;;;21.40;13.10;;;;;;;14.18;100.00;101154.88;4865913;29;20083;-80
2022/05/03 07:30:15;;;;;;;17.55;12.35;;;;;;;14.10;100.00;101162.13;4901371;29;20044;-84
2022/05/03 07:33:05;;;;;;;18.08;11.40;;;;;;;13.86;100.00;101158.31;4921563;29;20115;-81
2022/05/03 07:35:51;;;;;;;18.95;12.20;;;;;;;13.77;100.00;101169.06;4901659;29;20028;-81
2022/05/03 07:38:38;;;;;;;18.40;10.90;;;;;;;14.10;100.00;101157.72;4908819;29;20032;-83
2022/05/03 07:41:24;;;;;;;20.58;11.55;;;;;;;14.17;100.00;101161.06;4912524;29;20020;-77
2022/05/03 07:44:19;;;;;;;16.88;11.63;;;;;;;14.12;100.00;101161.16;4903474;29;20040;-78
2022/05/03 07:47:05;;;;;;;16.30;11.10;;;;;;;14.14;100.00;101162.00;4907782;29;20045;-81
2022/05/03 07:49:53;;;;;;;16.45;9.85;;;;;;;14.17;100.00;101169.84;4905304;29;20023;-77
2022/05/03 07:52:39;;;;;;;17.38;10.48;;;;;;;13.92;100.00;101171.34;4907110;29;20118;-80
2022/05/03 07:55:26;;;;;;;14.95;9.63;;;;;;;14.03;100.00;101177.22;4905948;29;20430;-79
2022/05/03 07:58:13;;;;;;;11.82;8.43;;;;;;;13.87;100.00;101175.00;4910501;29;20048;-78
2022/05/03 08:00:59;;;;;;;10.70;8.52;;;;;;;13.96;100.00;101173.03;4911094;29;20096;-78
2022/05/03 08:03:47;;;;;;;15.10;9.05;;;;;;;13.89;100.00;101174.06;4911064;29;20040;-79
2022/05/03 08:06:36;;;;;;;18.95;11.27;;;;;;;13.94;100.00;101174.81;4918511;29;20036;-78
2022/05/03 08:09:22;;;;;;;18.50;8.75;;;;;;;14.07;100.00;101170.97;4921281;29;20050;-81
2022/05/03 08:12:09;;;;;;;17.02;9.55;;;;;;;14.35;100.00;101165.91;4918997;29;20036;-80
2022/05/03 08:14:56;;;;;;;16.77;9.70;;;;;;;14.59;100.00;101173.19;4917481;29;20025;-81
2022/05/03 08:17:45;;;;;;;14.35;9.20;;;;;;;14.60;100.00;101167.84;4933776;29;20043;-81
2022/05/03 08:20:31;;;;;;;11.13;7.65;;;;;;;14.79;100.00;101168.22;4910774;29;20124;-80
2022/05/03 08:23:17;;;;;;;14.40;7.22;;;;;;;15.35;100.00;101182.50;4907395;29;20035;-82
2022/05/03 08:26:03;;;;;;;11.68;8.07;;;;;;;15.93;100.00;101175.38;4904167;29;20151;-81
2022/05/03 08:28:48;;;;;;;9.80;6.72;;;;;;;15.80;100.00;101179.31;4902337;29;20091;-81
2022/05/03 08:31:34;;;;;;;13.70;7.63;;;;;;;15.73;100.00;101183.06;4909849;29;20047;-81
2022/05/03 08:34:20;;;;;;;11.30;6.40;;;;;;;16.75;100.00;101176.09;4917303;29;20061;-80
2022/05/03 08:43:17;;;;;;;11.35;5.97;;;;;;;16.88;100.00;101186.22;4915293;29;20437;-78
2022/05/03 08:46:06;;;;;;;11.98;5.97;;;;;;;16.82;100.00;101174.97;4911751;29;20039;-77
2022/05/03 08:49:02;;;;;;;10.80;6.55;;;;;;;17.71;100.00;101185.75;4903578;29;20028;-78
2022/05/03 08:51:51;;;;;;;12.10;6.43;;;;;;;18.29;100.00;101187.78;4909147;29;20481;-77
2022/05/03 08:54:37;;;;;;;22.13;12.00;;;;;;;17.60;100.00;101182.66;4905772;29;20362;-78
2022/05/03 08:57:23;;;;;;;12.65;5.97;;;;;;;17.61;100.00;101192.34;4903275;29;20467;-77
2022/05/03 09:00:10;;;;;;;11.90;6.10;;;;;;;18.05;100.00;101191.44;4909226;29;20067;-79
2022/05/03 09:02:57;;;;;;;10.68;6.22;;;;;;;18.40;100.00;101180.25;4911699;29;20024;-79
2022/05/03 09:05:43;;;;;;;11.52;7.68;;;;;;;17.09;100.00;101190.75;4904995;29;20023;-76
2022/05/03 09:08:28;;;;;;;12.07;6.95;;;;;;;16.93;100.00;101176.34;4900688;29;20041;-80
2022/05/03 09:11:18;;;;;;;7.18;5.15;;;;;;;17.44;100.00;101177.06;4916151;29;20028;-80
2022/05/03 09:14:04;;;;;;;10.68;6.35;;;;;;;17.70;100.00;101173.41;4909173;29;20079;-80
2022/05/03 09:16:53;;;;;;;7.07;4.82;;;;;;;18.24;100.00;101176.47;4913949;29;20143;-79
2022/05/03 09:19:38;;;;;;;11.07;5.13;;;;;;;18.19;100.00;101178.47;4896659;29;20643;-80
2022/05/03 09:25:28;;;;;;;7.03;4.47;;;;;;;18.56;100.00;101168.06;4906824;29;20061;-78
2022/05/03 09:28:15;;;;;;;5.55;3.88;;;;;;;18.55;100.00;101169.88;4913320;29;20044;-76
2022/05/03 09:31:01;;;;;;;5.60;3.63;;;;;;;18.66;100.00;101166.75;4911857;29;20053;-80
2022/05/03 09:33:46;;;;;;;7.13;4.30;;;;;;;18.60;99.35;101169.66;4911117;29;20068;-80
2022/05/03 09:36:44;;;;;;;8.88;4.05;;;;;;;18.72;95.69;101166.47;4907208;29;20031;-78
2022/05/03 09:39:35;;;;;;;7.13;3.78;;;;;;;18.33;97.82;101157.56;4906709;29;20028;-80
2022/05/03 09:42:21;;;;;;;9.63;3.75;;;;;;;18.79;97.34;101159.97;4904000;29;20524;-79
2022/05/03 09:45:12;;;;;;;10.93;4.60;;;;;;;19.28;90.77;101161.34;4912254;29;20171;-83
2022/05/03 09:47:59;;;;;;;5.55;3.70;;;;;;;19.16;89.08;101160.03;4915994;29;20036;-81
2022/05/03 09:50:46;;;;;;;6.35;3.80;;;;;;;19.27;90.37;101157.81;4914559;29;20036;-82
2022/05/03 09:53:34;;;;;;;9.23;4.07;;;;;;;19.64;86.23;101162.28;4910254;29;20109;-78
2022/05/03 09:56:25;;;;;;;6.60;3.65;;;;;;;18.26;89.07;101156.06;4916137;29;20126;-78
2022/05/03 09:59:11;;;;;;;7.63;3.80;;;;;;;18.57;91.88;101154.72;4905543;29;20378;-80
2022/05/03 10:01:57;;;;;;;10.30;4.07;;;;;;;18.60;93.63;101151.94;4913084;29;20028;-79
2022/05/03 10:04:47;;;;;;;7.70;4.15;;;;;;;18.57;91.63;101159.19;4906759;29;20040;-79
2022/05/03 10:07:35;;;;;;;7.43;3.90;;;;;;;18.67;92.03;101149.88;4904900;29;20052;-78
2022/05/03 10:10:23;;;;;;;4.40;3.53;;;;;;;18.74;88.15;101151.34;4892826;29;20031;-80
2022/05/03 10:13:26;;;;;;;8.30;3.85;;;;;;;18.46;91.52;101151.69;4907959;29;20068;-79
2022/05/03 10:22:30;;;;;;;7.57;3.35;;;;;;;18.90;90.03;101149.75;4909738;29;20028;-81
2022/05/03 10:25:27;;;;;;;6.93;3.80;;;;;;;18.73;91.12;101147.81;4907932;29;20063;-81
2022/05/03 10:28:14;;;;;;;5.78;3.58;;;;;;;18.95;88.89;101142.44;4908935;29;20453;-81
2022/05/03 10:31:06;;;;;;;5.63;3.70;;;;;;;19.16;87.50;101149.41;4909656;29;20063;-81
2022/05/03 10:33:52;;;;;;;4.85;3.72;;;;;;;19.95;81.42;101142.09;4905267;29;20039;-82
2022/05/03 10:36:42;;;;;;;7.13;3.72;;;;;;;19.19;84.57;101147.50;4913259;29;20251;-79
2022/05/03 10:39:28;;;;;;;11.75;5.97;;;;;;;19.10;86.99;101145.25;4909731;29;20036;-81
2022/05/03 10:42:16;;;;;;;11.98;6.60;;;;;;;19.61;84.34;101141.16;4909534;29;20108;-82
2022/05/03 10:45:14;;;;;;;6.78;3.83;;;;;;;19.63;85.75;101137.47;4909130;29;20126;-81
2022/05/03 10:48:01;;;;;;;9.60;4.13;;;;;;;19.42;87.24;101143.81;4904588;29;20033;-81
2022/05/03 10:50:52;;;;;;;6.20;4.28;;;;;;;18.99;91.53;101134.25;4932793;29;20392;-81
2022/05/03 10:53:41;;;;;;;7.43;4.20;;;;;;;19.27;85.09;101136.53;4916605;29;20106;-81
2022/05/03 10:56:27;;;;;;;9.40;4.50;;;;;;;19.14;84.84;101135.34;4909904;29;20112;-80
2022/05/03 10:59:16;;;;;;;10.60;4.93;;;;;;;18.93;87.74;101137.19;4914546;29;20033;-80
2022/05/03 11:02:07;;;;;;;6.65;4.28;;;;;;;19.10;85.55;101139.09;4903830;29;20028;-81
2022/05/03 11:05:16;;;;;;;5.47;4.20;;;;;;;19.48;83.88;101140.00;4910984;29;20486;-83
2022/05/03 11:09:23;;;;;;;;;;;;;;;;;;;;;
2022/05/03 11:19:53;;;;;;;5.40;4.07;;;;;;;20.15;73.79;101120.72;4919025;29;20397;-81
2022/05/03 11:22:46;;;;;;;6.25;5.20;;;;;;;20.05;76.23;101119.41;4914212;29;20052;-80
2022/05/03 11:25:39;;;;;;;9.88;4.60;;;;;;;19.59;77.00;101113.75;4928499;29;20449;-80
2022/05/03 11:28:24;;;;;;;6.55;4.20;;;;;;;19.87;76.67;101123.00;4915242;29;20036;-80
2022/05/03 11:31:10;;;;;;;7.28;4.28;;;;;;;19.94;75.25;101111.13;4918805;29;20024;-81
2022/05/03 11:33:59;;;;;;;5.38;3.90;;;;;;;19.61;73.14;101115.41;4912023;29;20031;-78
2022/05/03 11:36:48;;;;;;;4.80;3.88;;;;;;;19.41;74.96;101112.81;4910623;29;20028;-80
2022/05/03 11:39:36;;;;;;;8.80;4.13;;;;;;;19.46;76.05;101107.31;4926717;29;20039;-81
2022/05/03 11:42:22;;;;;;;6.00;3.97;;;;;;;19.47;77.44;101104.59;4920597;29;20110;-79
2022/05/03 11:45:09;;;;;;;6.28;4.20;;;;;;;19.53;74.47;101104.28;4911069;29;20044;-80
2022/05/03 11:47:55;;;;;;;12.63;5.22;;;;;;;19.69;73.65;101104.41;4911331;29;20115;-78
2022/05/03 11:56:49;;;;;;;6.25;3.78;;;;;;;19.39;73.71;101098.78;4911873;29;20131;-82
2022/05/03 11:59:36;;;;;;;6.18;4.28;;;;;;;18.77;73.03;101100.78;4913778;29;20099;-81
2022/05/03 12:02:29;;;;;;;6.03;4.35;;;;;;;18.55;77.17;101098.22;4912986;29;20032;-82
2022/05/03 12:05:17;;;;;;;9.32;4.20;;;;;;;18.18;78.22;101100.72;4912145;29;20048;-80
2022/05/03 12:08:15;;;;;;;6.05;3.90;;;;;;;18.48;78.48;101095.88;4916777;29;20055;-78
2022/05/03 12:11:04;;;;;;;8.75;4.70;;;;;;;19.20;76.56;101098.75;4912630;29;20111;-82
2022/05/03 12:13:50;;;;;;;6.22;4.30;;;;;;;18.69;73.27;101097.63;4913226;29;20442;-80
2022/05/03 12:16:39;;;;;;;13.52;5.28;;;;;;;19.11;75.98;101095.66;4922960;29;20062;-78
2022/05/03 12:19:24;;;;;;;11.13;5.65;;;;;;;19.34;71.96;101089.28;4912947;29;20028;-78
2022/05/03 12:22:13;;;;;;;7.60;4.13;;;;;;;19.37;70.70;101084.69;4912966;29;20032;-77
2022/05/03 12:24:59;;;;;;;5.43;3.90;;;;;;;18.82;70.80;101093.47;4914146;29;20020;-77
2022/05/03 12:27:48;;;;;;;10.30;4.35;;;;;;;18.86;72.95;101095.06;4912087;29;20086;-78
2022/05/03 12:30:36;;;;;;;7.25;4.32;;;;;;;19.31;70.05;101090.28;4911794;29;20099;-75
2022/05/03 12:33:27;;;;;;;6.28;4.10;;;;;;;19.16;69.52;101097.16;4913487;29;20036;-77
2022/05/03 12:36:40;;;;;;;9.13;4.60;;;;;;;19.08;68.31;101096.66;4915568;29;20044;-78
2022/05/03 12:39:26;;;;;;;7.07;3.72;;;;;;;18.98;68.41;101094.50;4923270;29;20088;-78
2022/05/03 12:42:15;;;;;;;5.18;3.70;;;;;;;18.97;70.59;101100.75;4912647;29;20123;-80
2022/05/03 12:45:02;;;;;;;7.03;4.22;;;;;;;18.75;69.91;101097.31;4908076;29;20040;-80
2022/05/03 12:47:48;;;;;;;8.88;3.78;;;;;;;18.39;74.76;101096.28;4914334;29;20040;-78
2022/05/03 12:50:34;;;;;;;9.45;4.03;;;;;;;19.03;70.56;101097.78;4911269;29;20103;-78
2022/05/03 12:53:27;;;;;;;7.47;4.20;;;;;;;19.39;69.17;101108.53;4911547;29;20036;-78
2022/05/03 12:59:21;;;;;;;10.10;2.80;;;;;;;18.35;79.71;101111.50;4911226;29;20034;-80
2022/05/03 13:02:07;;;;;;;4.35;2.83;;;;;;;17.37;92.60;101114.63;4911038;29;20032;-77
2022/05/03 13:04:53;;;;;;;10.18;2.78;;;;;;;16.60;100.00;101115.81;4912941;29;20417;-79
2022/05/03 13:07:39;;;;;;;7.57;2.53;;;;;;;16.63;100.00;101115.72;4911395;29;20047;-78
2022/05/03 13:10:25;;;;;;;6.55;3.05;;;;;;;16.87;100.00;101115.69;4912617;29;20031;-79
2022/05/03 13:13:10;;;;;;;5.68;2.83;;;;;;;15.99;100.00;101108.25;4910590;29;20061;-80
2022/05/03 13:15:56;;;;;;;5.75;4.07;;;;;;;16.19;100.00;101104.00;4907787;29;20020;-79
2022/05/03 13:18:44;;;;;;;16.52;10.95;;;;;;;16.81;100.00;101107.97;4907864;29;20067;-79
2022/05/03 13:21:35;;;;;;;4.18;3.08;;;;;;;16.58;100.00;101096.47;4911493;29;20358;-79
2022/05/03 13:24:21;;;;;;;4.25;2.83;;;;;;;15.94;100.00;101089.00;4913114;29;20299;-79
2022/05/03 13:27:07;;;;;;;5.07;2.97;;;;;;;16.71;100.00;101095.09;4909239;29;20135;-79
2022/05/03 13:29:53;;;;;;;6.82;2.95;;;;;;;16.57;100.00;101082.41;4911389;29;20028;-79
2022/05/03 13:32:39;;;;;;;4.68;3.25;;;;;;;16.57;100.00;101092.13;4909738;29;20064;-78
2022/05/03 13:41:37;;;;;;;7.85;3.50;;;;;;;16.73;100.00;101090.63;4911296;29;20031;-79
2022/05/03 13:44:25;;;;;;;7.13;3.38;;;;;;;17.54;100.00;101092.81;4924346;29;20038;-79
2022/05/03 13:47:13;;;;;;;6.50;3.88;;;;;;;17.78;100.00;101095.34;4921405;29;20040;-79